sensor_id;sensor_type;location;lat;lon;timestamp;temperature;humidity
802;DHT22;383;48.766;9.270;2023-03-22T00:01:11;10.60;89.30
802;DHT22;383;48.766;9.270;2023-03-22T00:03:38;10.60;88.90
802;DHT22;383;48.766;9.270;2023-03-22T00:06:08;10.60;88.90
802;DHT22;383;48.766;9.270;2023-03-22T00:08:34;10.50;89.40
802;DHT22;383;48.766;9.270;2023-03-22T00:11:02;10.50;89.70
802;DHT22;383;48.766;9.270;2023-03-22T00:13:29;10.50;89.20
802;DHT22;383;48.766;9.270;2023-03-22T00:15:55;10.50;88.80
802;DHT22;383;48.766;9.270;2023-03-22T00:18:24;10.50;89.00
802;DHT22;383;48.766;9.270;2023-03-22T00:20:52;10.40;89.20
802;DHT22;383;48.766;9.270;2023-03-22T00:23:21;10.30;89.20
802;DHT22;383;48.766;9.270;2023-03-22T00:25:47;10.30;89.60
802;DHT22;383;48.766;9.270;2023-03-22T00:28:15;10.30;89.80
802;DHT22;383;48.766;9.270;2023-03-22T00:30:42;10.30;89.70
802;DHT22;383;48.766;9.270;2023-03-22T00:33:09;10.30;89.90
802;DHT22;383;48.766;9.270;2023-03-22T00:35:35;10.30;89.80
802;DHT22;383;48.766;9.270;2023-03-22T00:38:02;10.30;90.00
802;DHT22;383;48.766;9.270;2023-03-22T00:40:39;10.30;90.00
802;DHT22;383;48.766;9.270;2023-03-22T00:43:06;10.30;89.90
802;DHT22;383;48.766;9.270;2023-03-22T00:45:33;10.30;89.70
802;DHT22;383;48.766;9.270;2023-03-22T00:48:02;10.20;90.00
802;DHT22;383;48.766;9.270;2023-03-22T00:50:29;10.10;90.30
802;DHT22;383;48.766;9.270;2023-03-22T00:52:55;10.10;90.70
802;DHT22;383;48.766;9.270;2023-03-22T00:55:22;10.00;90.70
802;DHT22;383;48.766;9.270;2023-03-22T00:57:50;10.00;90.80
802;DHT22;383;48.766;9.270;2023-03-22T01:00:17;10.10;90.60
802;DHT22;383;48.766;9.270;2023-03-22T01:02:44;10.00;90.50
802;DHT22;383;48.766;9.270;2023-03-22T01:05:11;10.00;90.80
802;DHT22;383;48.766;9.270;2023-03-22T01:07:40;9.90;91.00
802;DHT22;383;48.766;9.270;2023-03-22T01:10:08;9.90;91.10
802;DHT22;383;48.766;9.270;2023-03-22T01:12:35;9.90;91.10
802;DHT22;383;48.766;9.270;2023-03-22T01:15:04;9.90;91.10
802;DHT22;383;48.766;9.270;2023-03-22T01:17:31;9.80;91.30
802;DHT22;383;48.766;9.270;2023-03-22T01:19:58;9.80;91.80
802;DHT22;383;48.766;9.270;2023-03-22T01:22:25;9.80;91.50
802;DHT22;383;48.766;9.270;2023-03-22T01:24:51;9.80;91.50
802;DHT22;383;48.766;9.270;2023-03-22T01:27:18;9.80;91.50
802;DHT22;383;48.766;9.270;2023-03-22T01:29:45;9.70;91.70
802;DHT22;383;48.766;9.270;2023-03-22T01:32:13;9.60;92.20
802;DHT22;383;48.766;9.270;2023-03-22T01:34:40;9.40;92.80
802;DHT22;383;48.766;9.270;2023-03-22T01:37:07;9.40;93.20
802;DHT22;383;48.766;9.270;2023-03-22T01:39:33;9.50;92.50
802;DHT22;383;48.766;9.270;2023-03-22T01:42:01;9.50;92.60
802;DHT22;383;48.766;9.270;2023-03-22T01:44:29;9.50;92.40
802;DHT22;383;48.766;9.270;2023-03-22T01:46:56;9.50;92.20
802;DHT22;383;48.766;9.270;2023-03-22T01:49:26;9.50;91.90
802;DHT22;383;48.766;9.270;2023-03-22T01:51:55;9.40;91.90
802;DHT22;383;48.766;9.270;2023-03-22T01:54:26;9.40;92.20
802;DHT22;383;48.766;9.270;2023-03-22T01:56:55;9.30;92.70
802;DHT22;383;48.766;9.270;2023-03-22T01:59:22;9.30;92.50
802;DHT22;383;48.766;9.270;2023-03-22T02:01:49;9.20;92.50
802;DHT22;383;48.766;9.270;2023-03-22T02:04:18;9.20;92.40
802;DHT22;383;48.766;9.270;2023-03-22T02:06:47;9.10;92.50
802;DHT22;383;48.766;9.270;2023-03-22T02:09:16;9.00;93.20
802;DHT22;383;48.766;9.270;2023-03-22T02:11:51;9.00;93.30
802;DHT22;383;48.766;9.270;2023-03-22T02:14:32;9.00;93.30
802;DHT22;383;48.766;9.270;2023-03-22T02:17:11;9.00;92.90
802;DHT22;383;48.766;9.270;2023-03-22T02:19:56;9.00;92.90
802;DHT22;383;48.766;9.270;2023-03-22T02:22:50;8.90;93.00
802;DHT22;383;48.766;9.270;2023-03-22T02:25:34;8.90;93.40
802;DHT22;383;48.766;9.270;2023-03-22T02:28:12;8.80;93.50
802;DHT22;383;48.766;9.270;2023-03-22T02:31:13;8.70;93.80
802;DHT22;383;48.766;9.270;2023-03-22T02:33:56;8.70;93.70
802;DHT22;383;48.766;9.270;2023-03-22T02:36:33;8.70;93.60
802;DHT22;383;48.766;9.270;2023-03-22T02:39:13;8.60;93.70
802;DHT22;383;48.766;9.270;2023-03-22T02:42:05;8.60;93.90
802;DHT22;383;48.766;9.270;2023-03-22T02:44:39;8.60;93.80
802;DHT22;383;48.766;9.270;2023-03-22T02:47:09;8.60;93.50
802;DHT22;383;48.766;9.270;2023-03-22T02:54:54;8.40;93.90
802;DHT22;383;48.766;9.270;2023-03-22T02:57:26;8.30;94.20
802;DHT22;383;48.766;9.270;2023-03-22T03:15:29;8.20;94.70
802;DHT22;383;48.766;9.270;2023-03-22T03:29:09;8.00;95.20
802;DHT22;383;48.766;9.270;2023-03-22T03:31:41;8.00;95.60
802;DHT22;383;48.766;9.270;2023-03-22T03:34:14;8.10;95.30
802;DHT22;383;48.766;9.270;2023-03-22T03:36:48;8.00;95.70
802;DHT22;383;48.766;9.270;2023-03-22T03:39:17;8.10;95.50
802;DHT22;383;48.766;9.270;2023-03-22T03:41:47;8.00;95.60
802;DHT22;383;48.766;9.270;2023-03-22T03:44:16;8.00;95.40
802;DHT22;383;48.766;9.270;2023-03-22T03:46:45;8.10;95.50
802;DHT22;383;48.766;9.270;2023-03-22T03:49:13;8.20;94.90
802;DHT22;383;48.766;9.270;2023-03-22T03:51:46;8.10;94.70
802;DHT22;383;48.766;9.270;2023-03-22T03:54:13;8.20;95.00
802;DHT22;383;48.766;9.270;2023-03-22T03:56:40;8.10;95.30
802;DHT22;383;48.766;9.270;2023-03-22T03:59:07;8.10;95.50
802;DHT22;383;48.766;9.270;2023-03-22T04:01:33;8.00;96.10
802;DHT22;383;48.766;9.270;2023-03-22T04:04:02;8.00;95.90
802;DHT22;383;48.766;9.270;2023-03-22T04:06:28;8.00;95.80
802;DHT22;383;48.766;9.270;2023-03-22T04:08:59;8.00;95.60
802;DHT22;383;48.766;9.270;2023-03-22T04:11:26;8.00;95.50
802;DHT22;383;48.766;9.270;2023-03-22T04:13:53;8.00;95.50
802;DHT22;383;48.766;9.270;2023-03-22T04:16:19;8.00;95.70
802;DHT22;383;48.766;9.270;2023-03-22T04:18:46;8.00;96.00
802;DHT22;383;48.766;9.270;2023-03-22T04:21:14;7.90;96.10
802;DHT22;383;48.766;9.270;2023-03-22T04:23:41;8.00;96.20
802;DHT22;383;48.766;9.270;2023-03-22T04:26:11;8.00;96.10
802;DHT22;383;48.766;9.270;2023-03-22T04:28:37;8.00;96.30
802;DHT22;383;48.766;9.270;2023-03-22T04:31:05;7.90;96.60
802;DHT22;383;48.766;9.270;2023-03-22T04:33:32;7.90;96.60
802;DHT22;383;48.766;9.270;2023-03-22T04:36:04;7.90;96.70
802;DHT22;383;48.766;9.270;2023-03-22T04:38:36;8.00;96.40
802;DHT22;383;48.766;9.270;2023-03-22T04:41:05;8.00;96.40
802;DHT22;383;48.766;9.270;2023-03-22T04:43:31;8.00;96.30
802;DHT22;383;48.766;9.270;2023-03-22T04:45:59;8.10;96.20
802;DHT22;383;48.766;9.270;2023-03-22T04:48:26;8.10;96.40
802;DHT22;383;48.766;9.270;2023-03-22T04:50:54;8.10;96.10
802;DHT22;383;48.766;9.270;2023-03-22T04:53:20;8.10;95.80
802;DHT22;383;48.766;9.270;2023-03-22T04:55:53;8.20;95.60
802;DHT22;383;48.766;9.270;2023-03-22T04:58:21;8.20;95.50
802;DHT22;383;48.766;9.270;2023-03-22T05:00:49;8.20;95.30
802;DHT22;383;48.766;9.270;2023-03-22T05:03:17;8.20;95.10
802;DHT22;383;48.766;9.270;2023-03-22T05:05:51;8.20;95.10
802;DHT22;383;48.766;9.270;2023-03-22T05:08:19;8.20;94.90
802;DHT22;383;48.766;9.270;2023-03-22T05:10:46;8.20;94.80
802;DHT22;383;48.766;9.270;2023-03-22T05:13:14;8.10;95.20
802;DHT22;383;48.766;9.270;2023-03-22T05:15:41;8.10;95.30
802;DHT22;383;48.766;9.270;2023-03-22T05:18:07;8.10;95.30
802;DHT22;383;48.766;9.270;2023-03-22T05:20:34;8.10;95.70
802;DHT22;383;48.766;9.270;2023-03-22T05:23:04;8.10;96.00
802;DHT22;383;48.766;9.270;2023-03-22T05:25:31;8.20;95.80
802;DHT22;383;48.766;9.270;2023-03-22T05:27:59;8.30;96.00
802;DHT22;383;48.766;9.270;2023-03-22T05:30:28;8.40;95.80
802;DHT22;383;48.766;9.270;2023-03-22T05:32:59;8.40;95.50
802;DHT22;383;48.766;9.270;2023-03-22T05:35:27;8.50;95.10
802;DHT22;383;48.766;9.270;2023-03-22T05:37:54;8.60;94.80
802;DHT22;383;48.766;9.270;2023-03-22T05:40:21;8.60;94.60
802;DHT22;383;48.766;9.270;2023-03-22T05:42:48;8.60;94.40
802;DHT22;383;48.766;9.270;2023-03-22T05:45:14;8.70;93.90
802;DHT22;383;48.766;9.270;2023-03-22T05:47:43;8.70;93.80
802;DHT22;383;48.766;9.270;2023-03-22T05:50:12;8.70;93.90
802;DHT22;383;48.766;9.270;2023-03-22T05:52:39;8.70;94.40
802;DHT22;383;48.766;9.270;2023-03-22T05:55:07;8.70;94.40
802;DHT22;383;48.766;9.270;2023-03-22T05:57:34;8.70;94.50
802;DHT22;383;48.766;9.270;2023-03-22T06:00:01;8.70;94.20
802;DHT22;383;48.766;9.270;2023-03-22T06:02:31;8.70;94.10
802;DHT22;383;48.766;9.270;2023-03-22T06:04:59;8.70;94.10
802;DHT22;383;48.766;9.270;2023-03-22T06:07:26;8.70;93.80
802;DHT22;383;48.766;9.270;2023-03-22T06:09:53;8.70;93.90
802;DHT22;383;48.766;9.270;2023-03-22T06:12:20;8.70;93.90
802;DHT22;383;48.766;9.270;2023-03-22T06:14:49;8.70;93.70
802;DHT22;383;48.766;9.270;2023-03-22T06:17:15;8.70;93.80
802;DHT22;383;48.766;9.270;2023-03-22T06:19:45;8.70;93.70
802;DHT22;383;48.766;9.270;2023-03-22T06:22:13;8.80;93.50
802;DHT22;383;48.766;9.270;2023-03-22T06:24:40;8.80;93.50
802;DHT22;383;48.766;9.270;2023-03-22T06:27:10;8.90;93.20
802;DHT22;383;48.766;9.270;2023-03-22T06:29:37;8.90;93.20
802;DHT22;383;48.766;9.270;2023-03-22T06:32:04;9.00;92.80
802;DHT22;383;48.766;9.270;2023-03-22T06:34:31;9.00;92.80
802;DHT22;383;48.766;9.270;2023-03-22T06:36:58;9.00;92.90
802;DHT22;383;48.766;9.270;2023-03-22T06:39:29;9.10;92.40
802;DHT22;383;48.766;9.270;2023-03-22T06:41:56;9.10;92.30
802;DHT22;383;48.766;9.270;2023-03-22T06:44:22;9.10;92.50
802;DHT22;383;48.766;9.270;2023-03-22T06:46:49;9.10;92.50
802;DHT22;383;48.766;9.270;2023-03-22T06:49:16;9.00;93.00
802;DHT22;383;48.766;9.270;2023-03-22T06:51:43;9.10;92.60
802;DHT22;383;48.766;9.270;2023-03-22T06:54:10;9.20;92.10
802;DHT22;383;48.766;9.270;2023-03-22T06:56:39;9.20;92.00
802;DHT22;383;48.766;9.270;2023-03-22T06:59:05;9.20;92.50
802;DHT22;383;48.766;9.270;2023-03-22T07:01:32;9.20;93.00
802;DHT22;383;48.766;9.270;2023-03-22T07:03:59;9.30;92.40
802;DHT22;383;48.766;9.270;2023-03-22T07:06:26;9.30;92.70
802;DHT22;383;48.766;9.270;2023-03-22T07:08:53;9.40;93.00
802;DHT22;383;48.766;9.270;2023-03-22T07:11:19;9.40;93.10
802;DHT22;383;48.766;9.270;2023-03-22T07:13:48;9.50;93.20
802;DHT22;383;48.766;9.270;2023-03-22T07:16:14;9.60;92.50
802;DHT22;383;48.766;9.270;2023-03-22T07:18:41;9.70;92.50
802;DHT22;383;48.766;9.270;2023-03-22T07:21:08;9.90;91.30
802;DHT22;383;48.766;9.270;2023-03-22T07:23:35;10.00;91.00
802;DHT22;383;48.766;9.270;2023-03-22T07:26:01;10.00;91.00
802;DHT22;383;48.766;9.270;2023-03-22T07:28:28;10.20;90.40
802;DHT22;383;48.766;9.270;2023-03-22T07:31:00;10.30;89.30
802;DHT22;383;48.766;9.270;2023-03-22T07:33:27;10.40;87.70
802;DHT22;383;48.766;9.270;2023-03-22T07:35:54;10.60;87.10
802;DHT22;383;48.766;9.270;2023-03-22T07:38:20;10.80;85.90
802;DHT22;383;48.766;9.270;2023-03-22T07:40:47;10.90;85.30
802;DHT22;383;48.766;9.270;2023-03-22T07:43:19;11.00;84.00
802;DHT22;383;48.766;9.270;2023-03-22T07:45:47;11.10;83.00
802;DHT22;383;48.766;9.270;2023-03-22T07:48:16;11.30;81.90
802;DHT22;383;48.766;9.270;2023-03-22T07:50:43;11.40;80.20
802;DHT22;383;48.766;9.270;2023-03-22T07:53:10;11.50;79.50
802;DHT22;383;48.766;9.270;2023-03-22T07:55:38;11.70;78.30
802;DHT22;383;48.766;9.270;2023-03-22T07:58:06;11.80;77.80
802;DHT22;383;48.766;9.270;2023-03-22T08:00:33;12.00;76.90
802;DHT22;383;48.766;9.270;2023-03-22T08:03:00;12.10;76.10
802;DHT22;383;48.766;9.270;2023-03-22T08:05:28;12.20;76.00
802;DHT22;383;48.766;9.270;2023-03-22T08:07:55;12.40;75.80
802;DHT22;383;48.766;9.270;2023-03-22T08:10:22;12.50;74.80
802;DHT22;383;48.766;9.270;2023-03-22T08:12:48;12.60;75.20
802;DHT22;383;48.766;9.270;2023-03-22T08:15:15;12.70;74.00
802;DHT22;383;48.766;9.270;2023-03-22T08:17:42;12.80;73.30
802;DHT22;383;48.766;9.270;2023-03-22T08:20:10;13.00;72.60
802;DHT22;383;48.766;9.270;2023-03-22T08:22:39;13.10;72.10
802;DHT22;383;48.766;9.270;2023-03-22T08:25:07;13.20;72.90
802;DHT22;383;48.766;9.270;2023-03-22T08:27:34;13.30;71.70
802;DHT22;383;48.766;9.270;2023-03-22T08:30:01;13.50;70.30
802;DHT22;383;48.766;9.270;2023-03-22T08:32:28;13.60;70.10
802;DHT22;383;48.766;9.270;2023-03-22T08:34:57;13.80;70.40
802;DHT22;383;48.766;9.270;2023-03-22T08:37:23;13.90;68.30
802;DHT22;383;48.766;9.270;2023-03-22T08:39:51;14.00;68.00
802;DHT22;383;48.766;9.270;2023-03-22T08:42:18;14.20;68.30
802;DHT22;383;48.766;9.270;2023-03-22T08:44:45;14.20;68.30
802;DHT22;383;48.766;9.270;2023-03-22T08:47:12;14.40;67.40
802;DHT22;383;48.766;9.270;2023-03-22T08:49:39;14.50;67.60
802;DHT22;383;48.766;9.270;2023-03-22T08:52:06;14.60;68.00
802;DHT22;383;48.766;9.270;2023-03-22T08:54:33;14.80;66.80
802;DHT22;383;48.766;9.270;2023-03-22T08:57:01;14.90;65.60
802;DHT22;383;48.766;9.270;2023-03-22T08:59:28;15.00;64.30
802;DHT22;383;48.766;9.270;2023-03-22T09:01:55;15.10;64.20
802;DHT22;383;48.766;9.270;2023-03-22T09:04:22;15.30;64.30
802;DHT22;383;48.766;9.270;2023-03-22T09:06:48;15.30;64.60
802;DHT22;383;48.766;9.270;2023-03-22T09:09:15;15.50;63.30
802;DHT22;383;48.766;9.270;2023-03-22T09:11:42;15.60;64.30
802;DHT22;383;48.766;9.270;2023-03-22T09:14:10;15.60;62.10
802;DHT22;383;48.766;9.270;2023-03-22T09:16:37;15.80;62.30
802;DHT22;383;48.766;9.270;2023-03-22T09:19:04;15.90;61.90
802;DHT22;383;48.766;9.270;2023-03-22T09:21:31;16.00;61.90
802;DHT22;383;48.766;9.270;2023-03-22T09:23:57;16.10;62.10
802;DHT22;383;48.766;9.270;2023-03-22T09:26:24;16.20;62.20
802;DHT22;383;48.766;9.270;2023-03-22T09:28:51;16.40;62.30
802;DHT22;383;48.766;9.270;2023-03-22T09:31:19;16.40;60.80
802;DHT22;383;48.766;9.270;2023-03-22T09:33:46;16.50;60.60
802;DHT22;383;48.766;9.270;2023-03-22T09:36:14;16.60;62.20
802;DHT22;383;48.766;9.270;2023-03-22T09:38:41;16.60;61.30
802;DHT22;383;48.766;9.270;2023-03-22T09:41:11;16.70;60.50
802;DHT22;383;48.766;9.270;2023-03-22T09:43:45;16.80;59.60
802;DHT22;383;48.766;9.270;2023-03-22T09:46:16;16.70;60.10
802;DHT22;383;48.766;9.270;2023-03-22T09:48:47;16.80;59.20
802;DHT22;383;48.766;9.270;2023-03-22T09:51:22;16.90;59.30
802;DHT22;383;48.766;9.270;2023-03-22T09:53:52;16.90;59.60
802;DHT22;383;48.766;9.270;2023-03-22T09:56:23;16.90;59.50
802;DHT22;383;48.766;9.270;2023-03-22T09:58:54;17.00;59.30
802;DHT22;383;48.766;9.270;2023-03-22T10:01:29;17.10;58.70
802;DHT22;383;48.766;9.270;2023-03-22T10:07:04;17.40;59.20
802;DHT22;383;48.766;9.270;2023-03-22T10:09:35;17.60;58.80
802;DHT22;383;48.766;9.270;2023-03-22T10:12:08;17.80;58.30
802;DHT22;383;48.766;9.270;2023-03-22T10:14:41;17.90;57.10
802;DHT22;383;48.766;9.270;2023-03-22T10:17:15;17.90;56.40
802;DHT22;383;48.766;9.270;2023-03-22T10:19:48;18.00;57.10
802;DHT22;383;48.766;9.270;2023-03-22T10:22:19;18.20;56.60
802;DHT22;383;48.766;9.270;2023-03-22T10:24:50;18.30;56.90
802;DHT22;383;48.766;9.270;2023-03-22T10:27:19;18.30;55.60
802;DHT22;383;48.766;9.270;2023-03-22T10:29:50;18.20;55.50
802;DHT22;383;48.766;9.270;2023-03-22T10:32:20;18.20;55.90
802;DHT22;383;48.766;9.270;2023-03-22T10:34:51;18.10;56.20
802;DHT22;383;48.766;9.270;2023-03-22T10:37:21;17.90;56.00
802;DHT22;383;48.766;9.270;2023-03-22T10:39:51;17.80;55.50
802;DHT22;383;48.766;9.270;2023-03-22T10:42:21;17.80;56.70
802;DHT22;383;48.766;9.270;2023-03-22T10:44:50;17.80;56.50
802;DHT22;383;48.766;9.270;2023-03-22T10:47:28;17.90;56.40
802;DHT22;383;48.766;9.270;2023-03-22T10:49:59;18.00;55.50
802;DHT22;383;48.766;9.270;2023-03-22T10:52:37;18.00;55.70
802;DHT22;383;48.766;9.270;2023-03-22T10:55:09;18.10;56.00
802;DHT22;383;48.766;9.270;2023-03-22T10:57:36;18.20;56.10
802;DHT22;383;48.766;9.270;2023-03-22T11:00:06;18.40;55.10
802;DHT22;383;48.766;9.270;2023-03-22T11:05:57;18.70;55.10
802;DHT22;383;48.766;9.270;2023-03-22T11:08:24;18.90;54.50
802;DHT22;383;48.766;9.270;2023-03-22T11:10:51;19.10;53.40
802;DHT22;383;48.766;9.270;2023-03-22T11:13:20;19.20;53.60
802;DHT22;383;48.766;9.270;2023-03-22T11:15:52;19.50;52.00
802;DHT22;383;48.766;9.270;2023-03-22T11:18:20;19.60;52.80
802;DHT22;383;48.766;9.270;2023-03-22T11:20:56;19.70;52.30
802;DHT22;383;48.766;9.270;2023-03-22T11:23:24;19.90;50.90
802;DHT22;383;48.766;9.270;2023-03-22T11:25:55;20.00;50.40
802;DHT22;383;48.766;9.270;2023-03-22T11:28:26;20.00;50.30
802;DHT22;383;48.766;9.270;2023-03-22T11:31:00;20.00;50.20
802;DHT22;383;48.766;9.270;2023-03-22T11:33:27;20.00;50.30
802;DHT22;383;48.766;9.270;2023-03-22T11:36:01;20.10;50.40
802;DHT22;383;48.766;9.270;2023-03-22T11:38:30;20.10;50.20
802;DHT22;383;48.766;9.270;2023-03-22T11:41:02;20.20;48.60
802;DHT22;383;48.766;9.270;2023-03-22T11:43:33;20.20;48.90
802;DHT22;383;48.766;9.270;2023-03-22T11:46:00;20.40;48.40
802;DHT22;383;48.766;9.270;2023-03-22T11:48:29;20.60;48.10
802;DHT22;383;48.766;9.270;2023-03-22T11:51:06;20.70;46.90
802;DHT22;383;48.766;9.270;2023-03-22T11:53:36;20.80;47.80
802;DHT22;383;48.766;9.270;2023-03-22T11:56:04;21.00;46.90
802;DHT22;383;48.766;9.270;2023-03-22T11:58:46;21.00;47.10
802;DHT22;383;48.766;9.270;2023-03-22T12:01:17;21.20;46.70
802;DHT22;383;48.766;9.270;2023-03-22T12:06:22;21.30;46.20
802;DHT22;383;48.766;9.270;2023-03-22T12:08:53;21.30;45.70
802;DHT22;383;48.766;9.270;2023-03-22T12:11:36;21.20;45.60
802;DHT22;383;48.766;9.270;2023-03-22T12:14:06;21.10;45.60
802;DHT22;383;48.766;9.270;2023-03-22T12:16:39;21.10;45.30
802;DHT22;383;48.766;9.270;2023-03-22T12:19:20;21.10;43.60
802;DHT22;383;48.766;9.270;2023-03-22T12:21:50;21.10;42.80
802;DHT22;383;48.766;9.270;2023-03-22T12:24:24;21.00;43.00
802;DHT22;383;48.766;9.270;2023-03-22T12:26:55;21.10;43.10
802;DHT22;383;48.766;9.270;2023-03-22T12:29:24;21.20;43.30
802;DHT22;383;48.766;9.270;2023-03-22T12:31:57;21.20;42.80
802;DHT22;383;48.766;9.270;2023-03-22T12:34:35;21.10;42.00
802;DHT22;383;48.766;9.270;2023-03-22T12:37:07;21.10;42.10
802;DHT22;383;48.766;9.270;2023-03-22T12:39:41;21.00;40.90
802;DHT22;383;48.766;9.270;2023-03-22T12:42:14;21.00;41.40
802;DHT22;383;48.766;9.270;2023-03-22T12:44:44;21.00;42.00
802;DHT22;383;48.766;9.270;2023-03-22T12:47:17;21.00;41.70
802;DHT22;383;48.766;9.270;2023-03-22T12:49:52;21.00;41.50
802;DHT22;383;48.766;9.270;2023-03-22T12:52:24;21.00;40.90
802;DHT22;383;48.766;9.270;2023-03-22T12:54:54;21.10;41.40
802;DHT22;383;48.766;9.270;2023-03-22T12:57:24;21.20;41.70
802;DHT22;383;48.766;9.270;2023-03-22T12:59:54;21.30;41.40
802;DHT22;383;48.766;9.270;2023-03-22T13:02:25;21.40;40.60
802;DHT22;383;48.766;9.270;2023-03-22T13:04:56;21.50;41.10
802;DHT22;383;48.766;9.270;2023-03-22T13:07:37;21.60;41.50
802;DHT22;383;48.766;9.270;2023-03-22T13:13:15;21.40;41.40
802;DHT22;383;48.766;9.270;2023-03-22T13:15:57;21.30;41.70
802;DHT22;383;48.766;9.270;2023-03-22T13:18:36;21.50;41.60
802;DHT22;383;48.766;9.270;2023-03-22T13:21:11;21.50;41.90
802;DHT22;383;48.766;9.270;2023-03-22T13:23:56;21.40;41.90
802;DHT22;383;48.766;9.270;2023-03-22T13:26:34;21.40;41.90
802;DHT22;383;48.766;9.270;2023-03-22T13:29:08;21.50;42.50
802;DHT22;383;48.766;9.270;2023-03-22T13:31:40;21.70;42.20
802;DHT22;383;48.766;9.270;2023-03-22T13:34:13;21.80;42.70
802;DHT22;383;48.766;9.270;2023-03-22T13:36:51;21.90;41.70
802;DHT22;383;48.766;9.270;2023-03-22T13:39:22;22.00;42.70
802;DHT22;383;48.766;9.270;2023-03-22T13:42:01;22.00;42.00
802;DHT22;383;48.766;9.270;2023-03-22T13:44:30;22.10;41.70
802;DHT22;383;48.766;9.270;2023-03-22T13:47:01;22.10;41.50
802;DHT22;383;48.766;9.270;2023-03-22T13:49:47;22.00;41.40
802;DHT22;383;48.766;9.270;2023-03-22T13:52:25;22.00;41.00
802;DHT22;383;48.766;9.270;2023-03-22T13:54:55;21.80;41.90
802;DHT22;383;48.766;9.270;2023-03-22T13:57:45;21.80;43.10
802;DHT22;383;48.766;9.270;2023-03-22T14:00:38;21.90;42.50
802;DHT22;383;48.766;9.270;2023-03-22T14:03:12;22.00;42.10
802;DHT22;383;48.766;9.270;2023-03-22T14:05:41;21.90;42.00
802;DHT22;383;48.766;9.270;2023-03-22T14:08:18;21.80;41.90
802;DHT22;383;48.766;9.270;2023-03-22T14:10:50;21.80;42.20
802;DHT22;383;48.766;9.270;2023-03-22T14:13:24;22.00;41.90
802;DHT22;383;48.766;9.270;2023-03-22T14:15:56;22.00;40.90
802;DHT22;383;48.766;9.270;2023-03-22T14:18:26;22.10;40.60
802;DHT22;383;48.766;9.270;2023-03-22T14:20:56;22.00;40.00
802;DHT22;383;48.766;9.270;2023-03-22T14:23:27;21.90;40.60
802;DHT22;383;48.766;9.270;2023-03-22T14:26:01;21.80;40.70
802;DHT22;383;48.766;9.270;2023-03-22T14:28:34;21.90;41.20
802;DHT22;383;48.766;9.270;2023-03-22T14:31:03;21.90;41.40
802;DHT22;383;48.766;9.270;2023-03-22T14:33:30;22.00;40.50
802;DHT22;383;48.766;9.270;2023-03-22T14:36:03;22.00;41.40
802;DHT22;383;48.766;9.270;2023-03-22T14:38:34;22.00;39.90
802;DHT22;383;48.766;9.270;2023-03-22T14:41:10;22.00;39.50
802;DHT22;383;48.766;9.270;2023-03-22T14:43:39;21.90;39.70
802;DHT22;383;48.766;9.270;2023-03-22T14:46:13;22.00;39.60
802;DHT22;383;48.766;9.270;2023-03-22T14:48:41;22.00;40.60
802;DHT22;383;48.766;9.270;2023-03-22T14:51:11;22.00;40.40
802;DHT22;383;48.766;9.270;2023-03-22T14:53:40;22.10;40.90
802;DHT22;383;48.766;9.270;2023-03-22T14:56:16;22.20;41.10
802;DHT22;383;48.766;9.270;2023-03-22T14:58:45;22.30;41.40
802;DHT22;383;48.766;9.270;2023-03-22T15:01:15;22.30;40.40
802;DHT22;383;48.766;9.270;2023-03-22T15:03:45;22.20;40.60
802;DHT22;383;48.766;9.270;2023-03-22T15:06:13;22.00;40.10
802;DHT22;383;48.766;9.270;2023-03-22T15:08:44;21.90;41.70
802;DHT22;383;48.766;9.270;2023-03-22T15:11:13;21.90;41.50
802;DHT22;383;48.766;9.270;2023-03-22T15:13:43;22.00;41.10
802;DHT22;383;48.766;9.270;2023-03-22T15:16:16;21.80;41.70
802;DHT22;383;48.766;9.270;2023-03-22T15:18:45;21.80;41.50
802;DHT22;383;48.766;9.270;2023-03-22T15:21:13;21.70;42.40
802;DHT22;383;48.766;9.270;2023-03-22T15:23:47;21.70;41.90
802;DHT22;383;48.766;9.270;2023-03-22T15:26:17;21.60;42.10
802;DHT22;383;48.766;9.270;2023-03-22T15:28:51;21.60;42.20
802;DHT22;383;48.766;9.270;2023-03-22T15:31:24;21.40;42.70
802;DHT22;383;48.766;9.270;2023-03-22T15:33:53;21.30;42.80
802;DHT22;383;48.766;9.270;2023-03-22T15:36:20;21.20;43.30
802;DHT22;383;48.766;9.270;2023-03-22T15:38:48;21.10;43.50
802;DHT22;383;48.766;9.270;2023-03-22T15:41:24;21.00;43.00
802;DHT22;383;48.766;9.270;2023-03-22T15:44:03;21.00;43.30
802;DHT22;383;48.766;9.270;2023-03-22T15:46:47;20.90;43.70
802;DHT22;383;48.766;9.270;2023-03-22T15:49:18;20.80;44.10
802;DHT22;383;48.766;9.270;2023-03-22T15:51:45;20.90;44.00
802;DHT22;383;48.766;9.270;2023-03-22T15:54:14;20.90;43.80
802;DHT22;383;48.766;9.270;2023-03-22T15:56:46;20.90;44.50
802;DHT22;383;48.766;9.270;2023-03-22T15:59:24;20.90;44.70
802;DHT22;383;48.766;9.270;2023-03-22T16:01:55;20.80;44.80
802;DHT22;383;48.766;9.270;2023-03-22T16:04:24;20.70;44.00
802;DHT22;383;48.766;9.270;2023-03-22T16:06:50;20.60;44.60
802;DHT22;383;48.766;9.270;2023-03-22T16:09:17;20.50;44.80
802;DHT22;383;48.766;9.270;2023-03-22T16:11:46;20.40;45.20
802;DHT22;383;48.766;9.270;2023-03-22T16:14:14;20.40;45.00
802;DHT22;383;48.766;9.270;2023-03-22T16:16:41;20.30;45.20
802;DHT22;383;48.766;9.270;2023-03-22T16:19:08;20.30;45.10
802;DHT22;383;48.766;9.270;2023-03-22T16:21:35;20.30;45.50
802;DHT22;383;48.766;9.270;2023-03-22T16:24:04;20.10;45.80
802;DHT22;383;48.766;9.270;2023-03-22T16:26:31;19.90;45.70
802;DHT22;383;48.766;9.270;2023-03-22T16:28:59;19.80;45.50
802;DHT22;383;48.766;9.270;2023-03-22T16:31:27;19.80;45.70
802;DHT22;383;48.766;9.270;2023-03-22T16:33:53;19.70;45.00
802;DHT22;383;48.766;9.270;2023-03-22T16:36:21;19.70;45.80
802;DHT22;383;48.766;9.270;2023-03-22T16:38:49;19.60;45.50
802;DHT22;383;48.766;9.270;2023-03-22T16:41:19;19.50;46.10
802;DHT22;383;48.766;9.270;2023-03-22T16:43:47;19.40;46.20
802;DHT22;383;48.766;9.270;2023-03-22T16:46:15;19.30;46.10
802;DHT22;383;48.766;9.270;2023-03-22T16:48:42;19.30;46.40
802;DHT22;383;48.766;9.270;2023-03-22T16:51:17;19.20;46.80
802;DHT22;383;48.766;9.270;2023-03-22T16:53:44;19.10;47.30
802;DHT22;383;48.766;9.270;2023-03-22T16:56:13;19.00;47.60
802;DHT22;383;48.766;9.270;2023-03-22T16:58:40;19.00;47.60
802;DHT22;383;48.766;9.270;2023-03-22T17:01:10;18.90;47.80
802;DHT22;383;48.766;9.270;2023-03-22T17:03:39;18.80;48.20
802;DHT22;383;48.766;9.270;2023-03-22T17:06:06;18.80;48.20
802;DHT22;383;48.766;9.270;2023-03-22T17:08:33;18.80;48.90
802;DHT22;383;48.766;9.270;2023-03-22T17:10:59;18.70;48.80
802;DHT22;383;48.766;9.270;2023-03-22T17:13:26;18.60;49.20
802;DHT22;383;48.766;9.270;2023-03-22T17:15:53;18.60;49.30
802;DHT22;383;48.766;9.270;2023-03-22T17:18:20;18.50;49.50
802;DHT22;383;48.766;9.270;2023-03-22T17:20:48;18.40;50.30
802;DHT22;383;48.766;9.270;2023-03-22T17:23:15;18.30;50.50
802;DHT22;383;48.766;9.270;2023-03-22T17:25:44;18.20;50.50
802;DHT22;383;48.766;9.270;2023-03-22T17:28:12;18.10;51.00
802;DHT22;383;48.766;9.270;2023-03-22T17:30:39;18.00;51.00
802;DHT22;383;48.766;9.270;2023-03-22T17:33:06;17.90;51.30
802;DHT22;383;48.766;9.270;2023-03-22T17:35:34;17.80;51.50
802;DHT22;383;48.766;9.270;2023-03-22T17:38:02;17.80;51.80
802;DHT22;383;48.766;9.270;2023-03-22T17:40:29;17.70;52.40